Cheikh El Mokrani — C6WD5 — position and weather

sailwx.info

Track history (hours):
 
Tides and Currents Weather Stations Pressure Air Temp Water Temp Dewpoint Dewpoint Depression Visibility Wind Speed Wind Dir Waves Ship Positions

Cheikh El Mokrani

Last reported at 2015-Jul-03 13:19 UTC. Time now 2015-Jul-03 20:20 UTC.
Position N 36°53' E 006°57'.

Length 220 m; draft 7.9 m.

Type: Ship (hazmat cat D). MMSI: 309979000.

Date/timePositionNaut miles runAvg speedWind from/ knotsBaromVisibWave heightAir tempDewpointWater temp
2015-Jul-03 13:19N 36°53' E 006°57'20514.9
2015-Jul-02 23:33N 40°13' E 006°01'1917.1
2015-Jul-02 22:26N 40°32' E 005°55'1517.4
2015-Jul-02 21:33N 40°47' E 005°51'1717.3
2015-Jul-02 20:34N 41°03' E 005°45'1717.0
2015-Jul-02 19:33N 41°20' E 005°39'1716.8
2015-Jul-02 18:33N 41°36' E 005°34'1717.1
2015-Jul-02 17:34N 41°53' E 005°28'1717.0
2015-Jul-02 16:32N 42°09' E 005°22'1716.9
2015-Jul-02 15:33N 42°26' E 005°17'1716.9
2015-Jul-02 14:34N 42°42' E 005°11'1616.2
2015-Jul-02 13:34N 42°58' E 005°06'1615.9
2015-Jul-02 12:33N 43°13' E 005°01'1010.1
2015-Jul-02 11:33N 43°23' E 004°57'3 3.1
2015-Jul-02 10:32N 43°25' E 004°54'0 0.0
2015-Jul-02 09:32N 43°25' E 004°54'0 0.0
2015-Jul-02 08:32N 43°25' E 004°54'0 0.0
2015-Jul-02 07:32N 43°25' E 004°54'0 0.0
2015-Jul-02 06:32N 43°25' E 004°54'0 0.0
2015-Jul-02 05:32N 43°25' E 004°54'0 0.0
2015-Jul-02 04:32N 43°25' E 004°54'0 0.0
2015-Jul-02 03:32N 43°25' E 004°54'0 0.0
2015-Jul-02 02:32N 43°25' E 004°54'0 0.0
2015-Jul-02 01:32N 43°25' E 004°54'0 0.0
2015-Jul-02 00:32N 43°25' E 004°54'0 0.0
2015-Jul-01 23:32N 43°25' E 004°54'0 0.0
2015-Jul-01 22:33N 43°25' E 004°54'0 0.0
2015-Jul-01 21:33N 43°25' E 004°54'0 0.0
2015-Jul-01 20:33N 43°25' E 004°54'0 0.0
2015-Jul-01 19:33N 43°25' E 004°54'0 0.0
2015-Jul-01 18:34N 43°25' E 004°54'0 0.0
2015-Jul-01 17:33N 43°25' E 004°54'0 0.0
2015-Jul-01 16:33N 43°25' E 004°54'0 0.0
2015-Jul-01 15:33N 43°25' E 004°54'0 0.0
2015-Jul-01 14:33N 43°25' E 004°54'0 0.0
2015-Jul-01 13:33N 43°25' E 004°54'0 0.0
2015-Jul-01 12:33N 43°25' E 004°54'0 0.0
2015-Jul-01 11:33N 43°25' E 004°54'0 0.0
2015-Jul-01 10:33N 43°25' E 004°54'0 0.0
2015-Jul-01 09:33N 43°25' E 004°54'0 0.0
2015-Jul-01 08:33N 43°25' E 004°54'0 0.0
2015-Jul-01 07:33N 43°25' E 004°54'0 0.0
2015-Jul-01 06:33N 43°25' E 004°54'1 0.5
2015-Jul-01 05:33N 43°24' E 004°54'2 1.9
2015-Jul-01 04:32N 43°23' E 004°56'0 0.0
2015-Jul-01 03:32N 43°23' E 004°56'0 0.0
2015-Jul-01 02:32N 43°23' E 004°56'0 0.0
2015-Jul-01 01:32N 43°23' E 004°56'0 0.0
2015-Jul-01 00:32N 43°23' E 004°56'0 0.0
2015-Jun-30 23:32N 43°23' E 004°56'0 0.0
2015-Jun-30 22:32N 43°23' E 004°56'0 0.0
2015-Jun-30 21:32N 43°23' E 004°56'0 0.0
2015-Jun-30 20:32N 43°23' E 004°56'0 0.0
2015-Jun-30 19:32N 43°23' E 004°56'0 0.0
2015-Jun-30 18:32N 43°23' E 004°56'0 0.1
2015-Jun-30 17:33N 43°23' E 004°56'3 3.5
2015-Jun-30 16:33N 43°20' E 004°59'1111.0
2015-Jun-30 15:34N 43°10' E 005°03'1616.3
2015-Jun-30 14:33N 42°54' E 005°09'1616.3
2015-Jun-30 13:33N 42°38' E 005°14'1616.2
2015-Jun-30 12:33N 42°22' E 005°19'1616.0
2015-Jun-30 11:33N 42°07' E 005°25'1616.1
2015-Jun-30 10:33N 41°51' E 005°31'1616.3
2015-Jun-30 09:33N 41°35' E 005°36'1616.3
2015-Jun-30 08:33N 41°20' E 005°42'1616.2
2015-Jun-30 07:33N 41°04' E 005°47'1716.3
2015-Jun-30 06:32N 40°48' E 005°53'1616.2
2015-Jun-30 05:33N 40°33' E 005°58'1716.1
2015-Jun-30 04:31N 40°16' E 006°04'1616.1
2015-Jun-30 03:31N 40°01' E 006°09'1616.1
2015-Jun-30 02:33N 39°46' E 006°13'1715.9
2015-Jun-30 01:27N 39°29' E 006°19'1616.2
2015-Jun-30 00:28N 39°13' E 006°24'13815.5
2015-Jun-29 15:33N 36°59' E 007°04'8 8.3
2015-Jun-29 14:33N 36°53' E 006°57'47 1.1
2015-Jun-27 21:32N 37°40' E 006°51'2114.9
2015-Jun-27 20:08N 38°00' E 006°45'4915.9
2015-Jun-27 17:04N 38°47' E 006°30'816.0
2015-Jun-27 16:33N 38°55' E 006°27'1616.3
2015-Jun-27 15:33N 39°11' E 006°22'1716.7
2015-Jun-27 14:33N 39°27' E 006°16'1716.9
2015-Jun-27 13:33N 39°44' E 006°11'1817.6
2015-Jun-27 12:33N 40°01' E 006°06'1817.6
2015-Jun-27 11:33N 40°18' E 006°00'1817.6
2015-Jun-27 10:33N 40°35' E 005°54'1717.3
2015-Jun-27 09:34N 40°52' E 005°49'1717.2
2015-Jun-27 08:33N 41°08' E 005°43'1717.0
2015-Jun-27 07:34N 41°25' E 005°38'1716.9
2015-Jun-27 06:33N 41°41' E 005°32'1717.1
2015-Jun-27 05:32N 41°58' E 005°26'1717.1
2015-Jun-27 04:33N 42°15' E 005°20'1717.0
2015-Jun-27 03:34N 42°31' E 005°15'1717.2
2015-Jun-27 02:33N 42°48' E 005°09'1717.5
2015-Jun-27 01:34N 43°05' E 005°04'1515.1
2015-Jun-27 00:33N 43°19' E 004°59'9 8.9
2015-Jun-26 23:34N 43°26' E 004°52'1 0.7
2015-Jun-26 22:31N 43°27' E 004°51'0 0.0
2015-Jun-26 21:31N 43°27' E 004°51'0 0.0
2015-Jun-26 20:31N 43°27' E 004°51'0 0.0
2015-Jun-26 19:31N 43°27' E 004°51'0 0.0
2015-Jun-26 18:31N 43°27' E 004°51'0 0.0
2015-Jun-26 17:28N 43°27' E 004°51'0 0.0
2015-Jun-26 16:31N 43°27' E 004°51'0 0.0
2015-Jun-26 15:31N 43°27' E 004°51'0 0.0
2015-Jun-26 14:31N 43°27' E 004°51'0 0.0
2015-Jun-26 13:31N 43°27' E 004°51'0 0.0
2015-Jun-26 12:31N 43°27' E 004°51'0 0.0
2015-Jun-26 11:31N 43°27' E 004°51'0 0.0
2015-Jun-26 10:31N 43°27' E 004°51'0 0.0
2015-Jun-26 09:28N 43°27' E 004°51'0 0.0
2015-Jun-26 08:31N 43°27' E 004°51'0 0.0
2015-Jun-26 07:31N 43°27' E 004°51'0 0.0
2015-Jun-26 06:31N 43°27' E 004°51'0 0.0
2015-Jun-26 05:31N 43°27' E 004°51'0 0.0
2015-Jun-26 04:31N 43°27' E 004°51'0 0.0
2015-Jun-26 03:31N 43°27' E 004°51'0 0.0
2015-Jun-26 02:31N 43°27' E 004°51'0 0.0
2015-Jun-26 01:31N 43°27' E 004°51'0 0.0
2015-Jun-26 00:31N 43°27' E 004°51'0 0.0
2015-Jun-25 23:31N 43°27' E 004°51'0 0.0
2015-Jun-25 22:31N 43°27' E 004°51'0 0.1
2015-Jun-25 21:33N 43°27' E 004°51'5 5.1
2015-Jun-25 20:33N 43°23' E 004°56'3 2.6
2015-Jun-25 19:33N 43°21' E 004°57'0 0.0
2015-Jun-25 18:33N 43°21' E 004°57'0 0.0
2015-Jun-25 17:33N 43°21' E 004°57'0 0.0
2015-Jun-25 16:33N 43°21' E 004°57'0 0.0
2015-Jun-25 15:34N 43°21' E 004°57'0 0.0
2015-Jun-25 14:33N 43°21' E 004°57'0 0.0
2015-Jun-25 13:33N 43°21' E 004°57'0 0.0
2015-Jun-25 12:33N 43°21' E 004°57'0 0.0
2015-Jun-25 11:33N 43°21' E 004°57'0 0.1
2015-Jun-25 10:33N 43°21' E 004°57'0 0.1
2015-Jun-25 09:33N 43°21' E 004°57'0 0.0
2015-Jun-25 08:33N 43°21' E 004°57'0 0.0
2015-Jun-25 07:33N 43°21' E 004°56'0 0.0
2015-Jun-25 06:33N 43°21' E 004°56'0 0.0
2015-Jun-25 05:33N 43°21' E 004°56'0 0.0
2015-Jun-25 04:33N 43°21' E 004°56'0 0.0
2015-Jun-25 03:33N 43°21' E 004°56'0 0.1
2015-Jun-25 02:33N 43°21' E 004°56'0 0.0
2015-Jun-25 01:33N 43°21' E 004°56'0 0.0
2015-Jun-25 00:34N 43°21' E 004°56'0 0.0
2015-Jun-24 23:34N 43°21' E 004°56'0 0.1
2015-Jun-24 22:34N 43°21' E 004°56'0 0.0
2015-Jun-24 21:34N 43°21' E 004°56'0 0.0
2015-Jun-24 20:33N 43°21' E 004°56'0 0.0
2015-Jun-24 19:33N 43°21' E 004°56'0 0.1
2015-Jun-24 18:33N 43°21' E 004°56'0 0.1
2015-Jun-24 17:33N 43°21' E 004°57'0 0.0
2015-Jun-24 16:34N 43°21' E 004°57'0 0.0
2015-Jun-24 15:34N 43°21' E 004°57'0 0.0
2015-Jun-24 14:33N 43°21' E 004°57'0 0.1
2015-Jun-24 13:33N 43°21' E 004°56'0 0.1
2015-Jun-24 12:33N 43°21' E 004°56'3 3.0
2015-Jun-24 11:33N 43°19' E 004°60'1110.7
2015-Jun-24 10:33N 43°09' E 005°04'1616.4
2015-Jun-24 09:33N 42°53' E 005°09'1616.0
2015-Jun-24 08:34N 42°37' E 005°14'1615.4
2015-Jun-24 07:32N 42°22' E 005°19'1515.3
2015-Jun-24 06:32N 42°07' E 005°24'1514.9
2015-Jun-24 05:31N 41°52' E 005°30'4614.8
2015-Jun-24 02:26N 41°08' E 005°46'11415.7
2015-Jun-23 19:10N 39°18' E 006°23'115.7
2015-Jun-23 19:06N 39°16' E 006°23'  
Track history (hours):
 
Tides and Currents Weather Stations Pressure Air Temp Water Temp Dewpoint Dewpoint Depression Visibility Wind Speed Wind Dir Waves Ship Positions

Cheikh El Mokrani

Last reported at 2015-Jul-03 13:19 UTC. Time now 2015-Jul-03 20:20 UTC.
Position N 36°53' E 006°57'.

Length 220 m; draft 7.9 m.

Type: Ship (hazmat cat D). MMSI: 309979000.

Date/timePositionNaut miles runAvg speedWind from/ knotsBaromVisibWave heightAir tempDewpointWater temp
2015-Jul-03 13:19N 36°53' E 006°57'20514.9
2015-Jul-02 23:33N 40°13' E 006°01'1917.1
2015-Jul-02 22:26N 40°32' E 005°55'1517.4
2015-Jul-02 21:33N 40°47' E 005°51'1717.3
2015-Jul-02 20:34N 41°03' E 005°45'1717.0
2015-Jul-02 19:33N 41°20' E 005°39'1716.8
2015-Jul-02 18:33N 41°36' E 005°34'1717.1
2015-Jul-02 17:34N 41°53' E 005°28'1717.0
2015-Jul-02 16:32N 42°09' E 005°22'1716.9
2015-Jul-02 15:33N 42°26' E 005°17'1716.9
2015-Jul-02 14:34N 42°42' E 005°11'1616.2
2015-Jul-02 13:34N 42°58' E 005°06'1615.9
2015-Jul-02 12:33N 43°13' E 005°01'1010.1
2015-Jul-02 11:33N 43°23' E 004°57'3 3.1
2015-Jul-02 10:32N 43°25' E 004°54'0 0.0
2015-Jul-02 09:32N 43°25' E 004°54'0 0.0
2015-Jul-02 08:32N 43°25' E 004°54'0 0.0
2015-Jul-02 07:32N 43°25' E 004°54'0 0.0
2015-Jul-02 06:32N 43°25' E 004°54'0 0.0
2015-Jul-02 05:32N 43°25' E 004°54'0 0.0
2015-Jul-02 04:32N 43°25' E 004°54'0 0.0
2015-Jul-02 03:32N 43°25' E 004°54'0 0.0
2015-Jul-02 02:32N 43°25' E 004°54'0 0.0
2015-Jul-02 01:32N 43°25' E 004°54'0 0.0
2015-Jul-02 00:32N 43°25' E 004°54'0 0.0
2015-Jul-01 23:32N 43°25' E 004°54'0 0.0
2015-Jul-01 22:33N 43°25' E 004°54'0 0.0
2015-Jul-01 21:33N 43°25' E 004°54'0 0.0
2015-Jul-01 20:33N 43°25' E 004°54'0 0.0
2015-Jul-01 19:33N 43°25' E 004°54'0 0.0
2015-Jul-01 18:34N 43°25' E 004°54'0 0.0
2015-Jul-01 17:33N 43°25' E 004°54'0 0.0
2015-Jul-01 16:33N 43°25' E 004°54'0 0.0
2015-Jul-01 15:33N 43°25' E 004°54'0 0.0
2015-Jul-01 14:33N 43°25' E 004°54'0 0.0
2015-Jul-01 13:33N 43°25' E 004°54'0 0.0
2015-Jul-01 12:33N 43°25' E 004°54'0 0.0
2015-Jul-01 11:33N 43°25' E 004°54'0 0.0
2015-Jul-01 10:33N 43°25' E 004°54'0 0.0
2015-Jul-01 09:33N 43°25' E 004°54'0 0.0
2015-Jul-01 08:33N 43°25' E 004°54'0 0.0
2015-Jul-01 07:33N 43°25' E 004°54'0 0.0
2015-Jul-01 06:33N 43°25' E 004°54'1 0.5
2015-Jul-01 05:33N 43°24' E 004°54'2 1.9
2015-Jul-01 04:32N 43°23' E 004°56'0 0.0
2015-Jul-01 03:32N 43°23' E 004°56'0 0.0
2015-Jul-01 02:32N 43°23' E 004°56'0 0.0
2015-Jul-01 01:32N 43°23' E 004°56'0 0.0
2015-Jul-01 00:32N 43°23' E 004°56'0 0.0
2015-Jun-30 23:32N 43°23' E 004°56'0 0.0
2015-Jun-30 22:32N 43°23' E 004°56'0 0.0
2015-Jun-30 21:32N 43°23' E 004°56'0 0.0
2015-Jun-30 20:32N 43°23' E 004°56'0 0.0
2015-Jun-30 19:32N 43°23' E 004°56'0 0.0
2015-Jun-30 18:32N 43°23' E 004°56'0 0.1
2015-Jun-30 17:33N 43°23' E 004°56'3 3.5
2015-Jun-30 16:33N 43°20' E 004°59'1111.0
2015-Jun-30 15:34N 43°10' E 005°03'1616.3
2015-Jun-30 14:33N 42°54' E 005°09'1616.3
2015-Jun-30 13:33N 42°38' E 005°14'1616.2
2015-Jun-30 12:33N 42°22' E 005°19'1616.0
2015-Jun-30 11:33N 42°07' E 005°25'1616.1
2015-Jun-30 10:33N 41°51' E 005°31'1616.3
2015-Jun-30 09:33N 41°35' E 005°36'1616.3
2015-Jun-30 08:33N 41°20' E 005°42'1616.2
2015-Jun-30 07:33N 41°04' E 005°47'1716.3
2015-Jun-30 06:32N 40°48' E 005°53'1616.2
2015-Jun-30 05:33N 40°33' E 005°58'1716.1
2015-Jun-30 04:31N 40°16' E 006°04'1616.1
2015-Jun-30 03:31N 40°01' E 006°09'1616.1
2015-Jun-30 02:33N 39°46' E 006°13'1715.9
2015-Jun-30 01:27N 39°29' E 006°19'1616.2
2015-Jun-30 00:28N 39°13' E 006°24'13815.5
2015-Jun-29 15:33N 36°59' E 007°04'8 8.3
2015-Jun-29 14:33N 36°53' E 006°57'47 1.1
2015-Jun-27 21:32N 37°40' E 006°51'2114.9
2015-Jun-27 20:08N 38°00' E 006°45'4915.9
2015-Jun-27 17:04N 38°47' E 006°30'816.0
2015-Jun-27 16:33N 38°55' E 006°27'1616.3
2015-Jun-27 15:33N 39°11' E 006°22'1716.7
2015-Jun-27 14:33N 39°27' E 006°16'1716.9
2015-Jun-27 13:33N 39°44' E 006°11'1817.6
2015-Jun-27 12:33N 40°01' E 006°06'1817.6
2015-Jun-27 11:33N 40°18' E 006°00'1817.6
2015-Jun-27 10:33N 40°35' E 005°54'1717.3
2015-Jun-27 09:34N 40°52' E 005°49'1717.2
2015-Jun-27 08:33N 41°08' E 005°43'1717.0
2015-Jun-27 07:34N 41°25' E 005°38'1716.9
2015-Jun-27 06:33N 41°41' E 005°32'1717.1
2015-Jun-27 05:32N 41°58' E 005°26'1717.1
2015-Jun-27 04:33N 42°15' E 005°20'1717.0
2015-Jun-27 03:34N 42°31' E 005°15'1717.2
2015-Jun-27 02:33N 42°48' E 005°09'1717.5
2015-Jun-27 01:34N 43°05' E 005°04'1515.1
2015-Jun-27 00:33N 43°19' E 004°59'9 8.9
2015-Jun-26 23:34N 43°26' E 004°52'1 0.7
2015-Jun-26 22:31N 43°27' E 004°51'0 0.0
2015-Jun-26 21:31N 43°27' E 004°51'0 0.0
2015-Jun-26 20:31N 43°27' E 004°51'0 0.0
2015-Jun-26 19:31N 43°27' E 004°51'0 0.0
2015-Jun-26 18:31N 43°27' E 004°51'0 0.0
2015-Jun-26 17:28N 43°27' E 004°51'0 0.0
2015-Jun-26 16:31N 43°27' E 004°51'0 0.0
2015-Jun-26 15:31N 43°27' E 004°51'0 0.0
2015-Jun-26 14:31N 43°27' E 004°51'0 0.0
2015-Jun-26 13:31N 43°27' E 004°51'0 0.0
2015-Jun-26 12:31N 43°27' E 004°51'0 0.0
2015-Jun-26 11:31N 43°27' E 004°51'0 0.0
2015-Jun-26 10:31N 43°27' E 004°51'0 0.0
2015-Jun-26 09:28N 43°27' E 004°51'0 0.0
2015-Jun-26 08:31N 43°27' E 004°51'0 0.0
2015-Jun-26 07:31N 43°27' E 004°51'0 0.0
2015-Jun-26 06:31N 43°27' E 004°51'0 0.0
2015-Jun-26 05:31N 43°27' E 004°51'0 0.0
2015-Jun-26 04:31N 43°27' E 004°51'0 0.0
2015-Jun-26 03:31N 43°27' E 004°51'0 0.0
2015-Jun-26 02:31N 43°27' E 004°51'0 0.0
2015-Jun-26 01:31N 43°27' E 004°51'0 0.0
2015-Jun-26 00:31N 43°27' E 004°51'0 0.0
2015-Jun-25 23:31N 43°27' E 004°51'0 0.0
2015-Jun-25 22:31N 43°27' E 004°51'0 0.1
2015-Jun-25 21:33N 43°27' E 004°51'5 5.1
2015-Jun-25 20:33N 43°23' E 004°56'3 2.6
2015-Jun-25 19:33N 43°21' E 004°57'0 0.0
2015-Jun-25 18:33N 43°21' E 004°57'0 0.0
2015-Jun-25 17:33N 43°21' E 004°57'0 0.0
2015-Jun-25 16:33N 43°21' E 004°57'0 0.0
2015-Jun-25 15:34N 43°21' E 004°57'0 0.0
2015-Jun-25 14:33N 43°21' E 004°57'0 0.0
2015-Jun-25 13:33N 43°21' E 004°57'0 0.0
2015-Jun-25 12:33N 43°21' E 004°57'0 0.0
2015-Jun-25 11:33N 43°21' E 004°57'0 0.1
2015-Jun-25 10:33N 43°21' E 004°57'0 0.1
2015-Jun-25 09:33N 43°21' E 004°57'0 0.0
2015-Jun-25 08:33N 43°21' E 004°57'0 0.0
2015-Jun-25 07:33N 43°21' E 004°56'0 0.0
2015-Jun-25 06:33N 43°21' E 004°56'0 0.0
2015-Jun-25 05:33N 43°21' E 004°56'0 0.0
2015-Jun-25 04:33N 43°21' E 004°56'0 0.0
2015-Jun-25 03:33N 43°21' E 004°56'0 0.1
2015-Jun-25 02:33N 43°21' E 004°56'0 0.0
2015-Jun-25 01:33N 43°21' E 004°56'0 0.0
2015-Jun-25 00:34N 43°21' E 004°56'0 0.0
2015-Jun-24 23:34N 43°21' E 004°56'0 0.1
2015-Jun-24 22:34N 43°21' E 004°56'0 0.0
2015-Jun-24 21:34N 43°21' E 004°56'0 0.0
2015-Jun-24 20:33N 43°21' E 004°56'0 0.0
2015-Jun-24 19:33N 43°21' E 004°56'0 0.1
2015-Jun-24 18:33N 43°21' E 004°56'0 0.1
2015-Jun-24 17:33N 43°21' E 004°57'0 0.0
2015-Jun-24 16:34N 43°21' E 004°57'0 0.0
2015-Jun-24 15:34N 43°21' E 004°57'0 0.0
2015-Jun-24 14:33N 43°21' E 004°57'0 0.1
2015-Jun-24 13:33N 43°21' E 004°56'0 0.1
2015-Jun-24 12:33N 43°21' E 004°56'3 3.0
2015-Jun-24 11:33N 43°19' E 004°60'1110.7
2015-Jun-24 10:33N 43°09' E 005°04'1616.4
2015-Jun-24 09:33N 42°53' E 005°09'1616.0
2015-Jun-24 08:34N 42°37' E 005°14'1615.4
2015-Jun-24 07:32N 42°22' E 005°19'1515.3
2015-Jun-24 06:32N 42°07' E 005°24'1514.9
2015-Jun-24 05:31N 41°52' E 005°30'4614.8
2015-Jun-24 02:26N 41°08' E 005°46'11415.7
2015-Jun-23 19:10N 39°18' E 006°23'115.7
2015-Jun-23 19:06N 39°16' E 006°23'  

Dump ship's entire track history